Kingsgate, Washington
Current Conditions -  °F | °C
As of 3:53 AM on Sunday 23 Nov 2014 (Local Time) from KBFI Reporting Station
Light Rain Light Rain  
Wind Chill: 50°   Ceiling: 5000
Heat Index: 50°   Visibility: 7mi
Dew Point: 43°   Wind: 10mph
Humidity: 77%   Direction: 180°S
Pressure: 30.15"   Gusts: 18mph
Location:  47.7179°N, 122.204°W
Report Text: KBFI 231153Z 18009G16KT 7SM -RA FEW030 BKN050 OVC080 10/06 A3015 RMK AO2 RAE15B44 SLP208 P0002 60005 70008 T01000061 10100 20078 50002
Loading
Personal Weather Stations






























Interactive Weather Map New forecast layout! Learn more

10-Day Weather Forecast

Advertisements
Track Severe Weather on mobile